createdAt,value
2019-02-16T00:00:45.962Z,14.30
2019-02-16T00:03:13.227Z,14.93
2019-02-16T00:05:40.462Z,15.83
2019-02-16T00:08:07.720Z,15.30
2019-02-16T00:10:44.214Z,18.40
2019-02-16T00:13:12.051Z,19.07
2019-02-16T00:15:39.287Z,17.03
2019-02-16T00:18:29.180Z,17.70
2019-02-16T00:21:03.731Z,14.30
2019-02-16T00:23:26.412Z,15.03
2019-02-16T00:25:53.927Z,14.50
2019-02-16T00:28:21.174Z,13.20
2019-02-16T00:30:48.396Z,14.47
2019-02-16T00:33:15.649Z,14.13
2019-02-16T00:35:42.876Z,14.53
2019-02-16T00:38:10.141Z,15.60
2019-02-16T00:40:37.861Z,14.83
2019-02-16T00:43:05.173Z,15.80
2019-02-16T00:45:32.404Z,17.00
2019-02-16T00:47:59.621Z,16.80
2019-02-16T00:50:26.867Z,16.10
2019-02-16T00:52:54.084Z,16.37
2019-02-16T00:55:21.676Z,16.97
2019-02-16T00:57:48.930Z,15.27
2019-02-16T01:00:16.274Z,15.20
2019-02-16T01:02:43.497Z,14.67
2019-02-16T01:05:10.739Z,13.40
2019-02-16T01:07:38.321Z,13.20
2019-02-16T01:10:06.366Z,13.20
2019-02-16T01:12:33.588Z,12.50
2019-02-16T01:15:01.248Z,12.50
2019-02-16T01:17:28.472Z,13.80
2019-02-16T01:19:55.824Z,14.37
2019-02-16T01:22:23.047Z,12.20
2019-02-16T01:24:50.289Z,12.97
2019-02-16T01:27:17.521Z,12.57
2019-02-16T01:29:44.767Z,12.47
2019-02-16T01:32:12.004Z,12.73
2019-02-16T01:34:39.331Z,13.40
2019-02-16T01:37:06.793Z,14.40
2019-02-16T01:39:34.051Z,13.87
2019-02-16T01:42:01.578Z,13.63
2019-02-16T01:44:28.861Z,13.87
2019-02-16T01:46:56.185Z,13.40
2019-02-16T01:49:23.744Z,14.90
2019-02-16T01:51:50.984Z,13.90
2019-02-16T01:54:18.266Z,14.07
2019-02-16T01:56:45.487Z,13.53
2019-02-16T01:59:12.755Z,12.23
2019-02-16T02:01:40.418Z,13.00
2019-02-16T02:04:07.668Z,11.17
2019-02-16T02:06:34.998Z,11.53
2019-02-16T02:09:04.404Z,11.83
2019-02-16T02:11:31.896Z,11.53
2019-02-16T02:13:59.160Z,11.30
2019-02-16T02:16:26.389Z,11.30
2019-02-16T02:18:53.672Z,10.20
2019-02-16T02:21:21.188Z,10.87
2019-02-16T02:23:48.512Z,11.37
2019-02-16T02:26:15.738Z,10.43
2019-02-16T02:28:43.066Z,11.03
2019-02-16T02:31:10.293Z,9.93
2019-02-16T02:33:37.626Z,10.60
2019-02-16T02:36:04.860Z,11.00
2019-02-16T02:38:31.992Z,10.73
2019-02-16T02:40:59.221Z,9.73
2019-02-16T02:43:26.766Z,9.70
2019-02-16T02:45:54.010Z,10.87
2019-02-16T02:48:21.668Z,9.83
2019-02-16T02:50:48.923Z,8.87
2019-02-16T02:53:16.247Z,9.90
2019-02-16T02:55:43.523Z,9.03
2019-02-16T02:58:10.749Z,9.17
2019-02-16T03:00:38.009Z,9.93
2019-02-16T03:03:05.243Z,8.83
2019-02-16T03:05:32.571Z,9.50
2019-02-16T03:08:00.127Z,9.40
2019-02-16T03:10:27.407Z,9.77
2019-02-16T03:12:54.647Z,9.33
2019-02-16T03:15:25.242Z,9.07
2019-02-16T03:17:52.562Z,9.33
2019-02-16T03:20:19.909Z,10.70
2019-02-16T03:23:12.655Z,11.00
2019-02-16T03:25:41.134Z,11.20
2019-02-16T03:28:32.681Z,11.43
2019-02-16T03:31:34.648Z,11.20
2019-02-16T03:34:07.517Z,10.83
2019-02-16T03:37:01.687Z,11.70
2019-02-16T03:39:32.113Z,9.67
2019-02-16T03:41:59.441Z,10.77
2019-02-16T03:44:26.752Z,11.57
2019-02-16T03:46:54.000Z,9.83
2019-02-16T03:49:21.223Z,9.47
2019-02-16T03:51:51.293Z,10.70
2019-02-16T03:54:18.938Z,10.70
2019-02-16T03:56:46.164Z,11.10
2019-02-16T03:59:13.436Z,10.90
2019-02-16T04:01:40.777Z,11.57
2019-02-16T04:04:08.034Z,10.73
2019-02-16T04:06:35.269Z,11.73
2019-02-16T04:09:04.464Z,11.90
2019-02-16T04:11:31.830Z,12.37
2019-02-16T04:13:59.188Z,11.33
2019-02-16T04:16:26.764Z,10.63
2019-02-16T04:18:54.008Z,11.20
2019-02-16T04:21:21.675Z,10.80
2019-02-16T04:23:48.924Z,11.00
2019-02-16T04:26:16.215Z,11.50
2019-02-16T04:28:43.440Z,10.77
2019-02-16T04:31:10.683Z,10.97
2019-02-16T04:33:37.933Z,10.03
2019-02-16T04:36:05.191Z,11.13
2019-02-16T04:38:32.428Z,10.97
2019-02-16T04:40:59.975Z,11.80
2019-02-16T04:43:27.209Z,11.67
2019-02-16T04:45:54.485Z,11.70
2019-02-16T04:48:21.727Z,10.50
2019-02-16T04:50:48.967Z,10.90
2019-02-16T04:53:16.211Z,10.47
2019-02-16T04:55:43.460Z,10.90
2019-02-16T04:58:10.712Z,11.43
2019-02-16T05:00:37.946Z,11.23
2019-02-16T05:03:05.203Z,11.53
2019-02-16T05:05:32.434Z,10.03
2019-02-16T05:07:59.974Z,9.83
2019-02-16T05:10:27.244Z,10.17
2019-02-16T05:12:54.568Z,10.67
2019-02-16T05:15:21.857Z,9.57
2019-02-16T05:17:49.213Z,9.97
2019-02-16T05:20:16.439Z,10.10
2019-02-16T05:22:45.004Z,9.63
2019-02-16T05:25:12.468Z,10.00
2019-02-16T05:27:39.711Z,10.40
2019-02-16T05:30:07.290Z,10.10
2019-02-16T05:32:35.258Z,11.53
2019-02-16T05:35:02.501Z,11.17
2019-02-16T05:37:30.505Z,13.07
2019-02-16T05:39:57.901Z,13.57
2019-02-16T05:42:25.168Z,13.87
2019-02-16T05:44:52.399Z,14.07
2019-02-16T05:47:19.641Z,13.20
2019-02-16T05:49:47.089Z,12.43
2019-02-16T05:52:14.305Z,13.17
2019-02-16T05:54:41.541Z,12.77
2019-02-16T05:57:08.793Z,12.07
2019-02-16T05:59:36.116Z,11.43
2019-02-16T06:02:03.732Z,12.20
2019-02-16T06:04:30.953Z,11.73
2019-02-16T06:06:58.563Z,11.03
2019-02-16T06:09:25.790Z,11.37
2019-02-16T06:11:53.151Z,9.60
2019-02-16T06:14:20.456Z,10.57
2019-02-16T06:16:47.936Z,10.93
2019-02-16T06:19:15.158Z,11.57
2019-02-16T06:21:42.385Z,13.87
2019-02-16T06:24:09.613Z,14.00
2019-02-16T06:26:36.841Z,12.27
2019-02-16T06:29:04.065Z,12.97
2019-02-16T06:31:31.300Z,13.87
2019-02-16T06:33:58.532Z,12.60
2019-02-16T06:36:51.347Z,13.50
2019-02-16T06:39:18.569Z,12.83
2019-02-16T06:41:45.825Z,12.97
2019-02-16T06:44:13.161Z,14.40
2019-02-16T06:46:40.403Z,13.33
2019-02-16T06:49:07.655Z,14.13
2019-02-16T06:51:34.877Z,14.10
2019-02-16T06:54:02.412Z,14.10
2019-02-16T06:57:01.022Z,13.23
2019-02-16T06:59:28.565Z,12.37
2019-02-16T07:01:56.121Z,12.77
2019-02-16T07:04:23.459Z,13.90
2019-02-16T07:06:50.698Z,13.03
2019-02-16T07:09:18.284Z,14.17
2019-02-16T07:11:45.514Z,14.83
2019-02-16T07:14:12.840Z,14.63
2019-02-16T07:16:55.344Z,14.27
2019-02-16T07:19:28.262Z,14.33
2019-02-16T07:21:55.990Z,14.97
2019-02-16T07:24:23.233Z,13.40
2019-02-16T07:26:50.461Z,14.50
2019-02-16T07:29:17.787Z,14.53
2019-02-16T07:31:45.007Z,15.47
2019-02-16T07:34:12.613Z,16.03
2019-02-16T07:36:40.174Z,15.40
2019-02-16T07:39:07.841Z,16.03
2019-02-16T07:41:35.087Z,16.57
2019-02-16T07:44:30.854Z,17.10
2019-02-16T07:47:21.911Z,15.00
2019-02-16T07:50:23.691Z,14.97
2019-02-16T07:53:13.560Z,14.77
2019-02-16T07:55:50.897Z,13.27
2019-02-16T07:58:32.016Z,14.40
2019-02-16T08:01:17.431Z,14.90
2019-02-16T08:04:10.359Z,15.37
2019-02-16T08:07:02.931Z,13.80
2019-02-16T08:09:48.311Z,14.73
2019-02-16T08:12:33.428Z,15.87
2019-02-16T08:15:05.698Z,16.23
2019-02-16T08:17:40.156Z,20.40
2019-02-16T08:20:19.078Z,20.50
2019-02-16T08:23:05.972Z,19.57
2019-02-16T08:25:51.684Z,16.33
2019-02-16T08:28:47.276Z,17.57
2019-02-16T08:31:36.836Z,18.40
2019-02-16T08:34:17.292Z,22.63
2019-02-16T08:37:04.048Z,23.27
2019-02-16T08:40:08.996Z,24.80
2019-02-16T08:42:42.617Z,21.67
2019-02-16T08:45:29.392Z,19.67
2019-02-16T08:48:15.871Z,18.90
2019-02-16T08:50:48.203Z,18.70
2019-02-16T08:53:37.931Z,17.27
2019-02-16T08:56:21.095Z,16.30
2019-02-16T08:59:00.454Z,14.57
2019-02-16T09:01:49.707Z,14.47
2019-02-16T09:04:25.483Z,13.23
2019-02-16T09:07:27.129Z,11.97
2019-02-16T09:10:06.773Z,12.73
2019-02-16T09:12:45.065Z,12.00
2019-02-16T09:15:33.146Z,11.67
2019-02-16T09:18:18.424Z,12.73
2019-02-16T09:21:14.203Z,12.53
2019-02-16T09:23:45.752Z,12.50
2019-02-16T09:26:35.577Z,12.00
2019-02-16T09:29:12.737Z,12.17
2019-02-16T09:32:17.641Z,11.87
2019-02-16T09:35:03.185Z,11.93
2019-02-16T09:37:41.849Z,12.67
2019-02-16T09:40:20.567Z,13.53
2019-02-16T09:43:08.001Z,13.80
2019-02-16T09:45:53.806Z,13.60
2019-02-16T09:48:35.200Z,13.57
2019-02-16T09:51:16.999Z,13.73
2019-02-16T09:54:08.483Z,15.03
2019-02-16T09:56:52.384Z,13.87
2019-02-16T09:59:26.374Z,13.73
2019-02-16T10:02:04.333Z,13.90
2019-02-16T10:04:56.084Z,14.00
2019-02-16T10:07:41.237Z,12.90
2019-02-16T10:10:22.770Z,14.27
2019-02-16T10:12:55.805Z,14.00
2019-02-16T10:16:00.661Z,14.23
2019-02-16T10:18:47.405Z,13.73
2019-02-16T10:21:32.010Z,14.63
2019-02-16T10:24:18.275Z,16.80
2019-02-16T10:26:55.280Z,14.87
2019-02-16T10:29:37.076Z,14.90
2019-02-16T10:32:17.735Z,16.13
2019-02-16T10:35:10.311Z,15.57
2019-02-16T10:37:59.729Z,15.53
2019-02-16T10:40:47.736Z,14.53
2019-02-16T10:43:34.523Z,15.37
2019-02-16T10:46:17.727Z,15.23
2019-02-16T10:49:03.156Z,14.70
2019-02-16T10:51:39.268Z,14.27
2019-02-16T10:54:28.014Z,14.13
2019-02-16T10:57:10.580Z,14.23
2019-02-16T11:00:01.256Z,14.17
2019-02-16T11:02:51.067Z,13.63
2019-02-16T11:05:37.814Z,14.63
2019-02-16T11:08:18.279Z,14.27
2019-02-16T11:10:52.966Z,14.10
2019-02-16T11:13:56.798Z,14.13
2019-02-16T11:17:03.803Z,13.90
2019-02-16T11:19:37.511Z,13.17
2019-02-16T11:22:12.838Z,14.57
2019-02-16T11:25:06.025Z,13.47
2019-02-16T11:28:11.718Z,14.43
2019-02-16T11:30:50.072Z,13.67
2019-02-16T11:33:35.624Z,13.20
2019-02-16T11:36:32.043Z,11.40
2019-02-16T11:39:09.475Z,12.73
2019-02-16T11:41:59.309Z,11.43
2019-02-16T11:44:51.897Z,11.20
2019-02-16T11:47:34.420Z,10.60
2019-02-16T11:50:18.429Z,9.63
2019-02-16T11:53:05.530Z,10.07
2019-02-16T11:55:52.803Z,10.10
2019-02-16T11:58:33.055Z,10.43
2019-02-16T12:01:32.111Z,10.03
2019-02-16T12:04:07.194Z,9.97
2019-02-16T12:06:39.207Z,8.83
2019-02-16T12:09:26.436Z,10.30
2019-02-16T12:12:09.235Z,9.97
2019-02-16T12:15:13.914Z,10.37
2019-02-16T12:18:18.990Z,10.17
2019-02-16T12:20:55.738Z,10.80
2019-02-16T12:23:34.666Z,10.53
2019-02-16T12:26:16.991Z,9.87
2019-02-16T12:29:06.763Z,10.90
2019-02-16T12:31:49.076Z,11.27
2019-02-16T12:34:26.797Z,11.33
2019-02-16T12:37:22.540Z,11.03
2019-02-16T12:39:59.051Z,10.47
2019-02-16T12:42:55.488Z,11.10
2019-02-16T12:46:00.953Z,10.93
2019-02-16T12:48:46.653Z,11.97
2019-02-16T12:51:33.786Z,11.70
2019-02-16T12:54:21.941Z,11.47
2019-02-16T12:57:07.420Z,12.13
2019-02-16T13:00:00.182Z,12.53
2019-02-16T13:02:49.952Z,11.90
2019-02-16T13:05:30.886Z,12.47
2019-02-16T13:08:07.212Z,11.90
2019-02-16T13:10:47.722Z,13.00
2019-02-16T13:13:22.450Z,11.50
2019-02-16T13:16:07.815Z,11.90
2019-02-16T13:19:09.580Z,13.50
2019-02-16T13:21:59.459Z,12.93
2019-02-16T13:24:41.514Z,13.23
2019-02-16T13:27:28.266Z,12.63
2019-02-16T13:30:12.363Z,12.73
2019-02-16T13:33:08.253Z,12.00
2019-02-16T13:35:44.604Z,13.10
2019-02-16T13:38:26.044Z,12.97
2019-02-16T13:41:07.727Z,12.83
2019-02-16T13:44:03.913Z,13.00
2019-02-16T13:46:37.066Z,13.07
2019-02-16T13:49:09.051Z,12.73
2019-02-16T13:51:42.407Z,12.20
2019-02-16T13:54:17.553Z,12.83
2019-02-16T13:56:55.656Z,12.63
2019-02-16T13:59:29.967Z,14.13
2019-02-16T14:02:17.031Z,12.97
2019-02-16T14:04:57.558Z,12.97
2019-02-16T14:07:50.092Z,12.57
2019-02-16T14:10:40.081Z,13.40
2019-02-16T14:13:30.119Z,12.80
2019-02-16T14:16:05.103Z,13.23
2019-02-16T14:18:32.346Z,14.20
2019-02-16T14:20:59.578Z,12.97
2019-02-16T14:23:28.437Z,13.57
2019-02-16T14:25:56.200Z,12.87
2019-02-16T14:28:23.465Z,13.17
2019-02-16T14:30:50.683Z,13.43
2019-02-16T14:33:18.208Z,12.87
2019-02-16T14:35:45.428Z,13.87
2019-02-16T14:38:32.496Z,12.87
2019-02-16T14:40:59.781Z,12.57
2019-02-16T14:43:27.060Z,12.93
2019-02-16T14:45:54.273Z,12.33
2019-02-16T14:48:21.520Z,12.07
2019-02-16T14:50:48.750Z,12.63
2019-02-16T14:53:16.032Z,12.90
2019-02-16T14:55:51.627Z,12.13
2019-02-16T14:58:12.437Z,12.60
2019-02-16T15:00:39.747Z,12.67
2019-02-16T15:03:07.305Z,11.80
2019-02-16T15:05:34.856Z,12.97
2019-02-16T15:08:02.519Z,13.67
2019-02-16T15:10:29.907Z,11.93
2019-02-16T15:12:57.173Z,12.70
2019-02-16T15:15:24.394Z,12.57
2019-02-16T15:17:51.647Z,11.77
2019-02-16T15:20:18.881Z,12.83
2019-02-16T15:22:46.133Z,12.73
2019-02-16T15:25:13.658Z,11.73
2019-02-16T15:27:40.895Z,11.47
2019-02-16T15:30:10.707Z,12.33
2019-02-16T15:32:37.932Z,12.13
2019-02-16T15:35:05.238Z,13.27
2019-02-16T15:37:32.452Z,12.57
2019-02-16T15:39:59.770Z,12.30
2019-02-16T15:42:26.996Z,12.03
2019-02-16T15:44:54.212Z,12.47
2019-02-16T15:47:21.448Z,12.40
2019-02-16T15:49:48.669Z,11.67
2019-02-16T15:52:15.901Z,12.47
2019-02-16T15:54:43.137Z,11.50
2019-02-16T15:57:10.373Z,12.10
2019-02-16T15:59:37.594Z,12.07
2019-02-16T16:02:04.845Z,11.87
2019-02-16T16:04:32.151Z,12.17
2019-02-16T16:06:59.556Z,11.23
2019-02-16T16:09:42.902Z,12.13
2019-02-16T16:12:28.024Z,10.83
2019-02-16T16:15:04.908Z,11.23
2019-02-16T16:17:57.827Z,11.03
2019-02-16T16:20:39.926Z,11.23
2019-02-16T16:23:27.081Z,11.13
2019-02-16T16:26:19.450Z,11.70
2019-02-16T16:29:12.363Z,10.87
2019-02-16T16:32:01.700Z,10.90
2019-02-16T16:35:07.095Z,10.20
2019-02-16T16:38:02.881Z,11.77
2019-02-16T16:40:42.760Z,12.20
2019-02-16T16:43:32.313Z,12.77
2019-02-16T16:46:18.133Z,12.17
2019-02-16T16:49:13.398Z,13.90
2019-02-16T16:52:15.603Z,13.40
2019-02-16T16:54:53.362Z,12.30
2019-02-16T16:57:42.524Z,12.43
2019-02-16T17:00:26.700Z,11.47
2019-02-16T17:03:11.851Z,14.13
2019-02-16T17:06:07.510Z,15.33
2019-02-16T17:09:06.220Z,14.93
2019-02-16T17:11:58.789Z,17.40
2019-02-16T17:14:36.308Z,18.60
2019-02-16T17:17:11.781Z,23.23
2019-02-16T17:19:58.527Z,26.13
2019-02-16T17:22:54.616Z,23.73
2019-02-16T17:25:33.084Z,16.67
2019-02-16T17:28:08.737Z,13.90
2019-02-16T17:31:07.595Z,14.73
2019-02-16T17:34:00.217Z,16.70
2019-02-16T17:36:44.212Z,20.83
2019-02-16T17:39:33.757Z,23.53
2019-02-16T17:42:18.904Z,23.73
2019-02-16T17:45:01.626Z,22.57
2019-02-16T17:47:46.992Z,18.20
2019-02-16T17:50:28.192Z,17.20
2019-02-16T17:53:10.584Z,16.80
2019-02-16T17:55:55.917Z,47.97
2019-02-16T17:58:54.509Z,24.53
2019-02-16T18:01:41.619Z,19.03
2019-02-16T18:04:17.411Z,14.80
2019-02-16T18:06:57.523Z,14.57
2019-02-16T18:10:03.116Z,12.53
2019-02-16T18:12:46.911Z,11.10
2019-02-16T18:15:23.406Z,10.90
2019-02-16T18:18:01.898Z,11.17
2019-02-16T18:21:02.194Z,10.30
2019-02-16T18:23:52.924Z,14.70
2019-02-16T18:26:42.413Z,14.13
2019-02-16T18:29:27.821Z,14.67
2019-02-16T18:32:14.667Z,14.30
2019-02-16T18:35:10.556Z,11.93
2019-02-16T18:37:44.842Z,11.27
2019-02-16T18:40:29.920Z,14.37
2019-02-16T18:43:10.164Z,18.33
2019-02-16T18:45:53.084Z,16.53
2019-02-16T18:48:44.814Z,16.30
2019-02-16T18:51:34.631Z,14.60
2019-02-16T18:54:27.244Z,15.60
2019-02-16T18:57:12.786Z,15.47
2019-02-16T18:59:59.264Z,15.77
2019-02-16T19:02:46.106Z,15.30
2019-02-16T19:05:33.634Z,15.70
2019-02-16T19:08:11.235Z,15.23
2019-02-16T19:10:58.136Z,14.03
2019-02-16T19:13:33.651Z,13.83
2019-02-16T19:16:12.555Z,13.00
2019-02-16T19:18:57.909Z,13.00
2019-02-16T19:21:45.517Z,13.20
2019-02-16T19:24:22.724Z,12.97
2019-02-16T19:27:16.716Z,12.30
2019-02-16T19:30:12.806Z,12.27
2019-02-16T19:32:47.260Z,13.07
2019-02-16T19:35:42.483Z,13.40
2019-02-16T19:38:27.529Z,14.13
2019-02-16T19:41:09.583Z,13.90
2019-02-16T19:43:45.667Z,13.17
2019-02-16T19:46:20.117Z,13.30
2019-02-16T19:48:57.627Z,15.07
2019-02-16T19:51:43.393Z,14.03
2019-02-16T19:54:18.872Z,14.63
2019-02-16T19:56:52.953Z,14.60
2019-02-16T19:59:45.980Z,15.13
2019-02-16T20:02:23.587Z,14.30
2019-02-16T20:04:58.498Z,15.70
2019-02-16T20:07:44.242Z,16.47
2019-02-16T20:10:34.283Z,17.13
2019-02-16T20:13:18.870Z,17.03
2019-02-16T20:16:11.739Z,16.00
2019-02-16T20:18:48.563Z,16.43
2019-02-16T20:21:38.224Z,15.90
2019-02-16T20:24:28.344Z,15.90
2019-02-16T20:27:15.127Z,18.13
2019-02-16T20:29:50.891Z,16.63
2019-02-16T20:32:40.812Z,16.03
2019-02-16T20:35:18.810Z,17.13
2019-02-16T20:37:59.273Z,17.23
2019-02-16T20:40:58.180Z,16.13
2019-02-16T20:43:37.625Z,15.97
2019-02-16T20:46:14.657Z,18.43
2019-02-16T20:48:50.967Z,19.53
2019-02-16T20:51:46.829Z,18.47
2019-02-16T20:54:36.456Z,19.60
2019-02-16T20:57:13.556Z,18.73
2019-02-16T20:59:54.111Z,18.13
2019-02-16T21:02:39.804Z,17.20
2019-02-16T21:05:44.843Z,17.23
2019-02-16T21:08:43.257Z,16.77
2019-02-16T21:11:45.132Z,15.50
2019-02-16T21:14:34.664Z,15.77
2019-02-16T21:17:12.641Z,15.63
2019-02-16T21:19:52.559Z,15.23
2019-02-16T21:22:29.848Z,14.83
2019-02-16T21:25:08.604Z,15.33
2019-02-16T21:27:57.415Z,14.00
2019-02-16T21:30:29.865Z,14.43
2019-02-16T21:33:36.402Z,14.07
2019-02-16T21:36:11.609Z,13.50
2019-02-16T21:39:05.979Z,13.33
2019-02-16T21:41:58.516Z,13.73
2019-02-16T21:44:54.621Z,13.67
2019-02-16T21:47:44.146Z,14.23
2019-02-16T21:50:33.093Z,16.30
2019-02-16T21:53:29.144Z,18.53
2019-02-16T21:56:34.052Z,17.33
2019-02-16T21:59:19.265Z,16.50
2019-02-16T22:02:07.589Z,16.77
2019-02-16T22:04:52.857Z,17.27
2019-02-16T22:07:42.707Z,16.57
2019-02-16T22:10:29.460Z,17.43
2019-02-16T22:13:08.575Z,17.30
2019-02-16T22:15:35.816Z,20.67
2019-02-16T22:18:03.039Z,22.07
2019-02-16T22:20:30.265Z,20.17
2019-02-16T22:22:57.492Z,19.77
2019-02-16T22:25:24.750Z,19.30
2019-02-16T22:27:51.972Z,18.50
2019-02-16T22:30:19.210Z,18.90
2019-02-16T22:32:46.436Z,18.40
2019-02-16T22:35:14.001Z,17.90
2019-02-16T22:37:41.273Z,17.93
2019-02-16T22:40:08.521Z,18.00
2019-02-16T22:42:36.090Z,18.83
2019-02-16T22:45:04.265Z,17.63
2019-02-16T22:47:31.607Z,16.87
2019-02-16T22:49:58.840Z,18.33
2019-02-16T22:52:26.500Z,17.63
2019-02-16T22:54:53.823Z,18.27
2019-02-16T22:57:21.097Z,17.10
2019-02-16T22:59:48.669Z,17.00
2019-02-16T23:02:16.411Z,17.43
2019-02-16T23:04:43.645Z,17.47
2019-02-16T23:07:11.287Z,17.33
2019-02-16T23:09:38.499Z,16.63
2019-02-16T23:12:06.062Z,18.00
2019-02-16T23:14:33.288Z,15.87
2019-02-16T23:17:00.886Z,15.17
2019-02-16T23:19:28.420Z,16.13
2019-02-16T23:21:55.674Z,16.10
2019-02-16T23:24:23.256Z,16.37
2019-02-16T23:26:50.502Z,15.87
2019-02-16T23:29:18.040Z,15.17
2019-02-16T23:31:45.256Z,16.37
2019-02-16T23:34:12.502Z,15.60
2019-02-16T23:36:39.733Z,18.13
2019-02-16T23:39:07.148Z,16.00
2019-02-16T23:41:34.392Z,16.50
2019-02-16T23:44:01.708Z,16.63
2019-02-16T23:46:29.234Z,15.90
2019-02-16T23:48:57.625Z,16.40
2019-02-16T23:51:24.974Z,16.73
2019-02-16T23:53:52.400Z,17.53
2019-02-16T23:56:20.376Z,15.33
2019-02-16T23:58:49.517Z,16.63
